createdAt,value
2023-07-18T00:01:25.869Z,15.67
2023-07-18T00:05:38.406Z,15.68
2023-07-18T00:09:50.794Z,15.58
2023-07-18T00:14:02.470Z,15.51
2023-07-18T00:18:15.801Z,15.50
2023-07-18T00:22:27.578Z,15.48
2023-07-18T00:26:39.387Z,15.42
2023-07-18T00:30:51.531Z,15.35
2023-07-18T00:35:05.166Z,15.34
2023-07-18T00:39:16.963Z,15.27
2023-07-18T00:43:33.512Z,15.25
2023-07-18T00:47:46.754Z,15.20
2023-07-18T00:51:58.904Z,15.09
2023-07-18T00:56:10.960Z,15.03
2023-07-18T01:00:24.306Z,14.94
2023-07-18T01:04:38.181Z,14.92
2023-07-18T01:08:51.705Z,14.82
2023-07-18T01:13:03.424Z,14.73
2023-07-18T01:17:15.129Z,14.69
2023-07-18T01:21:26.830Z,14.62
2023-07-18T01:25:39.365Z,14.55
2023-07-18T01:29:52.708Z,14.53
2023-07-18T01:34:05.815Z,14.47
2023-07-18T01:38:17.596Z,14.47
2023-07-18T01:42:29.292Z,14.40
2023-07-18T01:46:41.154Z,14.35
2023-07-18T01:50:53.436Z,14.29
2023-07-18T01:55:10.852Z,14.27
2023-07-18T01:59:23.423Z,14.24
2023-07-18T02:03:35.278Z,14.16
2023-07-18T02:07:48.933Z,14.15
2023-07-18T02:12:01.508Z,14.11
2023-07-18T02:16:13.201Z,14.06
2023-07-18T02:20:24.879Z,14.03
2023-07-18T02:24:36.577Z,14.00
2023-07-18T02:28:48.988Z,13.97
2023-07-18T02:33:00.699Z,13.95
2023-07-18T02:37:12.614Z,13.93
2023-07-18T02:41:24.378Z,13.90
2023-07-18T02:45:36.050Z,13.89
2023-07-18T02:49:47.848Z,13.89
2023-07-18T02:53:59.550Z,13.87
2023-07-18T02:58:14.665Z,13.86
2023-07-18T03:02:26.782Z,13.86
2023-07-18T03:06:38.534Z,13.80
2023-07-18T03:10:50.296Z,13.79
2023-07-18T03:15:02.730Z,13.73
2023-07-18T03:19:15.499Z,13.68
2023-07-18T03:23:27.650Z,13.72
2023-07-18T03:27:39.548Z,13.72
2023-07-18T03:31:51.850Z,13.67
2023-07-18T03:36:06.215Z,13.66
2023-07-18T03:40:18.227Z,13.55
2023-07-18T03:44:29.990Z,13.57
2023-07-18T03:48:41.814Z,13.63
2023-07-18T03:52:53.538Z,13.59
2023-07-18T03:57:05.575Z,13.59
2023-07-18T04:01:17.705Z,13.63
2023-07-18T04:05:29.816Z,13.65
2023-07-18T04:09:41.622Z,13.69
2023-07-18T04:13:53.327Z,13.73
2023-07-18T04:18:05.484Z,13.78
2023-07-18T04:22:17.562Z,13.83
2023-07-18T04:26:29.271Z,13.85
2023-07-18T04:30:40.942Z,13.91
2023-07-18T04:34:52.616Z,14.06
2023-07-18T04:39:05.036Z,14.28
2023-07-18T04:43:16.754Z,14.45
2023-07-18T04:47:29.893Z,14.86
2023-07-18T04:51:41.726Z,15.97
2023-07-18T04:55:53.522Z,16.93
2023-07-18T05:00:06.835Z,18.31
2023-07-18T05:04:19.136Z,19.31
2023-07-18T05:08:30.922Z,19.96
2023-07-18T05:12:42.947Z,21.00
2023-07-18T05:16:54.639Z,21.96
2023-07-18T05:21:06.252Z,22.46
2023-07-18T05:25:18.640Z,22.92
2023-07-18T05:29:30.322Z,23.69
2023-07-18T05:33:42.613Z,24.48
2023-07-18T05:37:54.326Z,24.39
2023-07-18T05:42:31.644Z,24.25
2023-07-18T05:46:43.480Z,24.93
2023-07-18T05:50:56.990Z,25.68
2023-07-18T05:55:09.546Z,26.37
2023-07-18T05:59:21.336Z,26.83
2023-07-18T06:03:33.281Z,27.29
2023-07-18T06:07:45.079Z,27.61
2023-07-18T06:11:56.877Z,27.93
2023-07-18T06:16:09.859Z,28.22
2023-07-18T06:20:21.552Z,27.84
2023-07-18T06:24:33.281Z,28.43
2023-07-18T06:28:44.956Z,28.98
2023-07-18T06:32:56.818Z,29.31
2023-07-18T06:37:11.371Z,29.72
2023-07-18T06:41:23.509Z,30.07
2023-07-18T06:45:35.171Z,30.46
2023-07-18T06:49:47.169Z,30.65
2023-07-18T06:53:58.876Z,30.89
2023-07-18T06:58:10.907Z,31.25
2023-07-18T07:02:22.694Z,31.38
2023-07-18T07:06:34.453Z,31.52
2023-07-18T07:10:46.594Z,31.56
2023-07-18T07:14:58.315Z,31.66
2023-07-18T07:19:09.999Z,31.76
2023-07-18T07:23:22.078Z,31.74
2023-07-18T07:27:33.762Z,32.17
2023-07-18T07:31:45.507Z,32.38
2023-07-18T07:35:57.257Z,32.57
2023-07-18T07:40:12.476Z,32.92
2023-07-18T07:44:24.552Z,33.00
2023-07-18T07:48:36.340Z,33.25
2023-07-18T07:52:48.078Z,33.56
2023-07-18T07:56:59.842Z,33.77
2023-07-18T08:01:11.528Z,34.07
2023-07-18T08:05:24.069Z,34.25
2023-07-18T08:09:36.071Z,34.55
2023-07-18T08:13:48.225Z,34.66
2023-07-18T08:18:01.353Z,34.66
2023-07-18T08:22:13.097Z,34.83
2023-07-18T08:26:24.769Z,35.18
2023-07-18T08:30:36.509Z,35.43
2023-07-18T08:34:48.185Z,35.35
2023-07-18T08:38:59.924Z,35.38
2023-07-18T08:43:15.938Z,35.61
2023-07-18T08:47:28.499Z,35.65
2023-07-18T08:51:40.281Z,35.97
2023-07-18T08:55:52.080Z,36.40
2023-07-18T09:00:05.959Z,36.53
2023-07-18T09:04:18.987Z,36.35
2023-07-18T09:08:44.813Z,36.02
2023-07-18T09:13:02.256Z,35.72
2023-07-18T09:17:13.923Z,35.27
2023-07-18T09:21:25.833Z,35.10
2023-07-18T09:25:41.369Z,35.33
2023-07-18T09:29:53.338Z,35.85
2023-07-18T09:34:13.355Z,36.47
2023-07-18T09:38:26.821Z,36.03
2023-07-18T09:42:45.248Z,36.14
2023-07-18T09:46:59.484Z,36.60
2023-07-18T09:51:15.626Z,36.55
2023-07-18T09:55:28.445Z,36.39
2023-07-18T09:59:41.175Z,36.24
2023-07-18T10:03:55.527Z,36.00
2023-07-18T10:08:08.874Z,36.06
2023-07-18T10:12:21.223Z,36.33
2023-07-18T10:16:36.409Z,36.57
2023-07-18T10:21:01.728Z,36.30
2023-07-18T10:25:13.438Z,36.16
2023-07-18T10:29:25.109Z,35.86
2023-07-18T10:33:36.837Z,35.70
2023-07-18T10:38:04.209Z,35.99
2023-07-18T10:42:27.452Z,36.05
2023-07-18T10:46:39.928Z,36.16
2023-07-18T10:50:51.736Z,35.89
2023-07-18T10:55:08.317Z,35.80
2023-07-18T10:59:20.984Z,36.07
2023-07-18T11:03:37.132Z,36.30
2023-07-18T11:07:49.565Z,36.29
2023-07-18T11:12:01.464Z,36.13
2023-07-18T11:16:17.175Z,36.08
2023-07-18T11:20:29.299Z,35.64
2023-07-18T11:24:43.326Z,35.71
2023-07-18T11:28:58.102Z,35.89
2023-07-18T11:33:14.503Z,36.18
2023-07-18T11:37:26.835Z,36.22
2023-07-18T11:41:41.030Z,36.26
2023-07-18T11:45:56.917Z,36.32
2023-07-18T11:50:14.106Z,36.08
2023-07-18T11:54:28.008Z,35.90
2023-07-18T11:58:39.677Z,35.55
2023-07-18T12:02:51.530Z,35.30
2023-07-18T12:07:03.357Z,35.15
2023-07-18T12:11:15.387Z,34.94
2023-07-18T12:15:28.189Z,34.41
2023-07-18T12:19:40.183Z,33.84
2023-07-18T12:23:51.852Z,33.35
2023-07-18T12:28:09.949Z,32.89
2023-07-18T12:32:54.227Z,32.61
2023-07-18T12:37:12.462Z,32.67
2023-07-18T12:41:25.948Z,32.67
2023-07-18T12:45:37.561Z,32.47
2023-07-18T12:54:03.897Z,31.24
2023-07-18T12:58:15.555Z,30.77
2023-07-18T13:02:27.177Z,31.13
2023-07-18T13:06:38.933Z,31.29
2023-07-18T13:10:50.544Z,31.23
2023-07-18T13:15:02.192Z,31.19
2023-07-18T13:19:13.870Z,31.37
2023-07-18T13:23:25.671Z,31.41
2023-07-18T13:27:39.814Z,31.44
2023-07-18T13:31:53.040Z,31.13
2023-07-18T13:36:06.122Z,30.94
2023-07-18T13:40:17.701Z,30.63
2023-07-18T13:44:29.306Z,30.57
2023-07-18T13:48:41.762Z,30.39
2023-07-18T13:52:53.638Z,30.36
2023-07-18T13:57:05.621Z,30.53
2023-07-18T14:01:17.364Z,30.47
2023-07-18T14:05:29.853Z,30.42
2023-07-18T14:09:41.912Z,30.30
2023-07-18T14:13:53.583Z,30.05
2023-07-18T14:18:05.259Z,29.92
2023-07-18T14:22:19.613Z,29.78
2023-07-18T14:26:31.288Z,29.52
2023-07-18T14:30:43.476Z,29.50
2023-07-18T14:34:55.175Z,29.43
2023-07-18T14:39:06.865Z,29.52
2023-07-18T14:43:29.095Z,29.43
2023-07-18T14:47:40.883Z,29.22
2023-07-18T14:51:52.697Z,29.27
2023-07-18T14:56:05.201Z,28.94
2023-07-18T15:00:19.661Z,28.92
2023-07-18T15:04:31.373Z,28.94
2023-07-18T15:08:43.095Z,28.90
2023-07-18T15:12:54.752Z,28.82
2023-07-18T15:17:06.530Z,28.75
2023-07-18T15:21:18.211Z,28.67
2023-07-18T15:25:31.491Z,28.59
2023-07-18T15:29:44.267Z,28.53
2023-07-18T15:33:56.012Z,28.50
2023-07-18T15:38:07.659Z,28.58
2023-07-18T15:42:20.170Z,28.53
2023-07-18T15:46:31.906Z,28.44
2023-07-18T15:50:43.692Z,28.34
2023-07-18T15:54:55.308Z,28.23
2023-07-18T15:59:07.250Z,28.15
2023-07-18T16:03:19.673Z,28.09
2023-07-18T16:07:31.478Z,28.01
2023-07-18T16:11:43.136Z,27.85
2023-07-18T16:15:55.053Z,27.80
2023-07-18T16:20:07.367Z,27.82
2023-07-18T16:24:19.117Z,27.73
2023-07-18T16:28:30.800Z,27.76
2023-07-18T16:32:42.587Z,27.76
2023-07-18T16:36:56.432Z,27.73
2023-07-18T16:41:08.487Z,27.78
2023-07-18T16:45:20.418Z,27.75
2023-07-18T16:49:32.180Z,27.58
2023-07-18T16:53:44.176Z,27.60
2023-07-18T16:57:55.852Z,27.57
2023-07-18T17:02:07.508Z,27.38
2023-07-18T17:06:19.431Z,27.33
2023-07-18T17:10:31.296Z,27.17
2023-07-18T17:14:42.910Z,26.95
2023-07-18T17:18:54.699Z,26.85
2023-07-18T17:23:07.350Z,26.87
2023-07-18T17:27:19.036Z,26.88
2023-07-18T17:31:32.301Z,26.72
2023-07-18T17:35:44.409Z,26.78
2023-07-18T17:39:56.447Z,26.69
2023-07-18T17:44:10.886Z,26.65
2023-07-18T17:48:24.755Z,26.55
2023-07-18T17:52:42.825Z,26.53
2023-07-18T17:57:06.867Z,26.40
2023-07-18T18:01:21.969Z,26.33
2023-07-18T18:05:48.405Z,26.08
2023-07-18T18:10:08.086Z,25.89
2023-07-18T18:14:19.846Z,25.85
2023-07-18T18:18:32.158Z,25.77
2023-07-18T18:22:43.990Z,25.78
2023-07-18T18:26:55.736Z,25.67
2023-07-18T18:31:07.553Z,25.57
2023-07-18T18:35:19.460Z,25.33
2023-07-18T18:39:31.174Z,25.33
2023-07-18T18:43:42.937Z,25.26
2023-07-18T18:47:54.600Z,25.23
2023-07-18T18:52:06.612Z,25.20
2023-07-18T18:56:19.005Z,25.00
2023-07-18T19:00:30.975Z,24.81
2023-07-18T19:04:43.138Z,24.70
2023-07-18T19:08:55.587Z,24.51
2023-07-18T19:13:07.328Z,24.48
2023-07-18T19:17:19.022Z,24.42
2023-07-18T19:21:30.690Z,24.19
2023-07-18T19:25:42.419Z,24.08
2023-07-18T19:29:54.095Z,23.94
2023-07-18T19:34:05.742Z,23.88
2023-07-18T19:38:17.338Z,23.75
2023-07-18T19:42:28.925Z,23.69
2023-07-18T19:46:40.626Z,23.58
2023-07-18T19:50:52.421Z,23.51
2023-07-18T19:55:04.213Z,23.44
2023-07-18T19:59:15.755Z,23.35
2023-07-18T20:03:27.534Z,23.29
2023-07-18T20:07:40.027Z,23.26
2023-07-18T20:11:51.809Z,23.11
2023-07-18T20:16:04.598Z,23.07
2023-07-18T20:20:16.308Z,22.86
2023-07-18T20:24:28.093Z,22.77
2023-07-18T20:28:39.715Z,22.66
2023-07-18T20:32:51.367Z,22.65
2023-07-18T20:37:03.687Z,22.63
2023-07-18T20:41:15.277Z,22.59
2023-07-18T20:45:27.078Z,22.57
2023-07-18T20:49:39.333Z,22.58
2023-07-18T20:53:52.679Z,22.47
2023-07-18T20:58:04.306Z,22.52
2023-07-18T21:02:16.055Z,22.32
2023-07-18T21:06:27.785Z,22.34
2023-07-18T21:10:39.648Z,22.28
2023-07-18T21:14:51.390Z,22.23
2023-07-18T21:19:03.155Z,22.20
2023-07-18T21:23:14.977Z,22.18
2023-07-18T21:27:26.760Z,22.14
2023-07-18T21:31:38.493Z,22.06
2023-07-18T21:35:50.313Z,21.94
2023-07-18T21:40:01.971Z,21.92
2023-07-18T21:44:14.083Z,21.76
2023-07-18T21:48:26.027Z,21.63
2023-07-18T21:52:38.081Z,21.69
2023-07-18T21:56:49.842Z,21.59
2023-07-18T22:01:01.666Z,21.48
2023-07-18T22:05:13.515Z,21.53
2023-07-18T22:09:25.526Z,21.41
2023-07-18T22:13:37.310Z,21.33
2023-07-18T22:17:49.121Z,21.21
2023-07-18T22:22:00.851Z,21.09
2023-07-18T22:26:14.980Z,20.98
2023-07-18T22:30:26.800Z,20.95
2023-07-18T22:34:38.590Z,20.93
2023-07-18T22:38:50.296Z,20.93
2023-07-18T22:43:02.046Z,20.81
2023-07-18T22:47:14.238Z,20.77
2023-07-18T22:51:26.372Z,20.77
2023-07-18T22:55:38.244Z,20.75
2023-07-18T22:59:49.950Z,20.67
2023-07-18T23:04:01.682Z,20.55
2023-07-18T23:08:13.378Z,20.43
2023-07-18T23:12:25.071Z,20.30
2023-07-18T23:16:36.803Z,20.13
2023-07-18T23:20:48.647Z,20.02
2023-07-18T23:25:00.519Z,19.89
2023-07-18T23:29:12.312Z,19.79
2023-07-18T23:33:23.969Z,19.71
2023-07-18T23:37:35.663Z,19.61
2023-07-18T23:41:47.343Z,19.56
2023-07-18T23:45:59.176Z,19.51
2023-07-18T23:50:10.905Z,19.43
2023-07-18T23:54:22.965Z,19.47
2023-07-18T23:58:34.820Z,19.48
